createdAt,value
2023-04-12T00:12:43.719Z,6.60
2023-04-12T00:27:46.363Z,7.90
2023-04-12T00:42:49.178Z,6.60
2023-04-12T00:57:51.814Z,6.20
2023-04-12T01:13:11.388Z,6.50
2023-04-12T01:28:29.198Z,5.10
2023-04-12T01:43:31.883Z,5.50
2023-04-12T01:58:35.342Z,5.50
2023-04-12T02:13:38.331Z,5.10
2023-04-12T02:28:41.245Z,5.00
2023-04-12T02:43:43.828Z,5.90
2023-04-12T02:58:46.448Z,6.00
2023-04-12T03:13:49.068Z,5.20
2023-04-12T03:28:52.046Z,5.60
2023-04-12T03:43:54.801Z,5.50
2023-04-12T03:58:57.492Z,6.00
2023-04-12T04:14:00.502Z,6.20
2023-04-12T04:29:03.569Z,5.90
2023-04-12T04:44:10.634Z,5.90
2023-04-12T04:59:13.525Z,5.50
2023-04-12T05:14:17.246Z,6.30
2023-04-12T05:29:20.373Z,5.50
2023-04-12T05:44:23.085Z,6.20
2023-04-12T05:59:25.960Z,6.20
2023-04-12T06:14:28.622Z,6.40
2023-04-12T06:29:31.244Z,5.70
2023-04-12T06:44:33.820Z,5.50
2023-04-12T06:59:36.499Z,5.00
2023-04-12T07:14:39.913Z,5.40
2023-04-12T07:29:42.827Z,4.50
2023-04-12T07:44:45.548Z,3.10
2023-04-12T07:59:48.205Z,4.10
2023-04-12T08:14:51.011Z,3.50
2023-04-12T08:29:53.812Z,3.20
2023-04-12T08:44:56.558Z,2.20
2023-04-12T09:00:03.978Z,4.10
2023-04-12T09:15:15.672Z,3.50
2023-04-12T09:30:20.655Z,4.20
2023-04-12T09:45:26.323Z,2.40
2023-04-12T10:00:31.396Z,2.40
2023-04-12T10:15:34.954Z,2.30
2023-04-12T10:30:38.138Z,2.40
2023-04-12T10:45:41.286Z,3.00
2023-04-12T11:00:56.768Z,3.60
2023-04-12T11:16:03.481Z,2.90
2023-04-12T11:31:06.477Z,2.70
2023-04-12T11:46:10.013Z,3.50
2023-04-12T12:01:14.508Z,2.70
2023-04-12T12:16:18.624Z,1.80
2023-04-12T12:31:24.523Z,4.20
2023-04-12T12:46:37.338Z,3.60
2023-04-12T13:01:50.125Z,3.80
2023-04-12T13:16:52.983Z,3.10
2023-04-12T13:31:56.494Z,2.70
2023-04-12T13:46:59.193Z,2.00
2023-04-12T14:17:05.521Z,2.70
2023-04-12T14:32:08.358Z,2.40
2023-04-12T14:47:11.007Z,2.10
2023-04-12T15:17:17.154Z,2.00
2023-04-12T15:32:19.855Z,3.00
2023-04-12T16:02:27.342Z,3.20
2023-04-12T16:17:31.510Z,2.60
2023-04-12T16:32:36.011Z,2.60
2023-04-12T16:47:40.286Z,2.40
2023-04-12T17:02:43.192Z,2.50
2023-04-12T17:18:04.074Z,4.00
2023-04-12T17:33:07.971Z,6.50
2023-04-12T17:48:14.415Z,8.00
2023-04-12T18:03:17.528Z,13.70
2023-04-12T18:18:20.307Z,8.70
2023-04-12T19:03:30.405Z,8.50
2023-04-12T19:18:33.454Z,8.40
2023-04-12T19:33:36.720Z,11.10
2023-04-12T19:48:39.733Z,10.80
2023-04-12T20:03:45.601Z,9.40
2023-04-12T20:18:48.517Z,9.50
2023-04-12T21:04:06.031Z,11.90
2023-04-12T21:19:09.479Z,11.10
2023-04-12T21:34:12.422Z,12.80
2023-04-12T21:49:15.786Z,14.70
2023-04-12T22:04:18.552Z,17.20
2023-04-12T22:49:28.398Z,15.70
2023-04-12T23:04:31.156Z,15.40
2023-04-12T23:19:34.405Z,15.90
2023-04-12T23:34:37.358Z,15.80
2023-04-12T23:49:39.964Z,15.90
